Time;durP1;ratioP1;P1;durP2;ratioP2;P2;SDS_P1;SDS_P2;PMS_P1;PMS_P2;Temp;Humidity;BMP_temperature;BMP_pressure;BME280_temperature;BME280_humidity;BME280_pressure;Samples;Min_cycle;Max_cycle;Signal;HPM_P1;HPM_P2
2021/06/20 00:00:29;;;;;;;17.93;16.03;;;;;;;22.28;80.47;100590.47;4981275;28;20660;-72
2021/06/20 00:02:55;;;;;;;19.13;17.13;;;;;;;22.24;80.79;100589.09;4997039;28;20226;-72
2021/06/20 00:05:23;;;;;;;19.77;16.77;;;;;;;22.24;80.73;100586.38;4997479;28;20517;-73
2021/06/20 00:07:49;;;;;;;21.83;15.80;;;;;;;22.21;80.78;100583.97;4997374;28;20215;-73
2021/06/20 00:10:20;;;;;;;18.77;16.87;;;;;;;22.18;80.83;100595.16;5000543;28;20682;-73
2021/06/20 00:12:45;;;;;;;18.47;16.57;;;;;;;22.15;80.68;100586.31;5015754;28;20315;-73
2021/06/20 00:15:15;;;;;;;19.30;17.30;;;;;;;22.17;80.08;100588.03;5014531;28;20260;-73
2021/06/20 00:17:40;;;;;;;18.13;16.17;;;;;;;22.12;79.98;100586.66;4996860;28;20197;-73
2021/06/20 00:20:07;;;;;;;18.70;15.17;;;;;;;22.17;79.39;100593.47;4996643;28;20183;-73
2021/06/20 00:22:33;;;;;;;18.20;15.77;;;;;;;22.00;79.74;100581.63;4996459;28;20561;-74
2021/06/20 00:24:59;;;;;;;17.47;15.67;;;;;;;22.00;79.39;100585.19;5014516;28;20177;-73
2021/06/20 00:27:24;;;;;;;16.83;15.13;;;;;;;21.98;78.73;100581.78;5014519;28;20200;-73
2021/06/20 00:29:50;;;;;;;17.90;13.90;;;;;;;22.00;78.96;100576.19;4980092;28;20669;-73
2021/06/20 00:32:15;;;;;;;19.33;14.80;;;;;;;21.97;78.31;100568.38;4996465;28;20251;-73
2021/06/20 00:34:40;;;;;;;16.93;14.17;;;;;;;21.90;78.29;100568.13;5013765;28;20608;-73
2021/06/20 00:37:06;;;;;;;19.93;14.07;;;;;;;21.88;78.31;100564.72;5013677;28;20189;-73
2021/06/20 00:39:32;;;;;;;19.23;14.80;;;;;;;21.86;78.41;100566.75;5013817;28;20180;-73
2021/06/20 00:41:57;;;;;;;17.73;15.17;;;;;;;21.76;78.55;100566.03;4996798;28;20235;-73
2021/06/20 00:44:22;;;;;;;19.83;14.07;;;;;;;21.81;78.02;100561.81;4996588;28;20185;-72
2021/06/20 00:46:48;;;;;;;15.57;13.57;;;;;;;21.71;78.02;100557.50;5013275;28;20224;-72
2021/06/20 00:49:13;;;;;;;15.73;14.10;;;;;;;21.67;78.10;100556.97;4995801;28;20558;-72
2021/06/20 00:51:39;;;;;;;17.87;14.27;;;;;;;21.72;77.46;100548.34;5013606;28;20177;-73
2021/06/20 00:54:05;;;;;;;17.40;13.10;;;;;;;21.69;77.48;100545.94;4998371;28;20173;-73
2021/06/20 00:56:32;;;;;;;13.40;12.00;;;;;;;21.69;77.45;100546.78;5000008;28;20199;-73
2021/06/20 00:59:04;;;;;;;14.63;12.27;;;;;;;21.69;77.32;100537.81;5000536;28;20271;-74
2021/06/20 01:01:33;;;;;;;17.27;13.13;;;;;;;21.77;76.78;100546.00;4985013;28;20264;-73
2021/06/20 01:03:59;;;;;;;15.70;12.87;;;;;;;21.68;77.48;100539.66;5000258;28;20213;-73
2021/06/20 01:06:27;;;;;;;15.70;12.23;;;;;;;21.60;77.93;100523.31;5000222;28;20216;-73
2021/06/20 01:08:53;;;;;;;15.83;14.30;;;;;;;21.61;78.29;100537.75;5000663;28;20518;-73
2021/06/20 01:11:19;;;;;;;19.17;15.47;;;;;;;21.48;78.95;100520.00;4984197;28;20184;-73
2021/06/20 01:13:45;;;;;;;20.00;16.30;;;;;;;21.24;80.49;100519.84;5017546;28;20177;-73
2021/06/20 01:16:10;;;;;;;20.67;16.60;;;;;;;21.07;81.36;100516.06;4999809;28;20503;-73
2021/06/20 01:18:36;;;;;;;18.77;16.77;;;;;;;21.07;80.60;100517.94;5000816;28;20181;-75
2021/06/20 01:21:02;;;;;;;18.03;16.13;;;;;;;21.09;80.08;100518.63;4999710;28;20212;-74
2021/06/20 01:23:28;;;;;;;21.40;15.73;;;;;;;21.06;80.22;100513.53;5000240;28;20195;-73
2021/06/20 01:25:55;;;;;;;19.17;16.70;;;;;;;20.92;80.93;100520.34;5017133;28;20592;-73
2021/06/20 01:28:25;;;;;;;17.77;16.07;;;;;;;20.84;80.99;100507.56;4999630;28;20232;-73
2021/06/20 01:30:57;;;;;;;17.73;15.47;;;;;;;20.91;80.28;100502.38;5017708;28;20169;-73
2021/06/20 01:33:23;;;;;;;20.33;14.77;;;;;;;20.90;80.07;100498.81;4999885;28;20181;-72
2021/06/20 01:35:48;;;;;;;15.97;14.10;;;;;;;20.85;79.84;100487.59;5017572;28;20181;-73
2021/06/20 01:38:13;;;;;;;19.37;15.47;;;;;;;20.72;80.49;100478.13;5016879;28;20197;-73
2021/06/20 01:40:39;;;;;;;16.43;14.83;;;;;;;20.68;80.52;100474.88;4999734;28;20181;-73
2021/06/20 01:43:04;;;;;;;16.80;15.00;;;;;;;20.65;80.41;100464.31;4967350;28;20181;-73
2021/06/20 01:45:31;;;;;;;27.57;16.17;;;;;;;20.49;81.51;100461.47;4999148;28;20211;-73
2021/06/20 01:47:58;;;;;;;17.63;15.37;;;;;;;20.47;81.53;100461.63;4999584;28;20205;-74
2021/06/20 01:50:23;;;;;;;16.70;15.00;;;;;;;20.41;81.62;100453.22;4999704;28;20181;-72
2021/06/20 01:53:05;;;;;;;16.50;14.10;;;;;;;20.46;81.25;100450.94;5016703;28;20192;-72
2021/06/20 01:55:31;;;;;;;16.83;14.27;;;;;;;20.29;82.26;100441.72;4999435;28;20168;-73
2021/06/20 01:57:56;;;;;;;19.10;15.07;;;;;;;20.23;82.53;100437.78;4999436;28;20200;-73
2021/06/20 02:00:22;;;;;;;17.63;14.43;;;;;;;20.26;82.38;100437.47;4999214;28;20178;-73
2021/06/20 02:02:47;;;;;;;20.00;14.47;;;;;;;20.21;82.33;100425.38;4983519;28;20600;-73
2021/06/20 02:05:13;;;;;;;16.97;15.23;;;;;;;20.20;82.31;100411.00;5016548;28;20177;-74
2021/06/20 02:07:38;;;;;;;15.90;13.83;;;;;;;20.26;81.93;100396.81;5020866;23;20229;-68
2021/06/20 02:10:06;;;;;;;17.03;13.73;;;;;;;20.33;81.20;100405.19;4998050;28;20276;-68
2021/06/20 02:12:32;;;;;;;13.97;12.57;;;;;;;20.33;80.88;100404.34;4997848;28;20172;-68
2021/06/20 02:14:57;;;;;;;13.83;12.43;;;;;;;20.34;80.78;100406.88;5015536;28;20187;-69
2021/06/20 02:17:33;;;;;;;13.77;11.63;;;;;;;20.35;80.37;100405.03;5015341;28;20181;-69
2021/06/20 02:20:00;;;;;;;13.13;11.37;;;;;;;20.31;80.32;100409.91;5015301;28;20215;-68
2021/06/20 02:22:26;;;;;;;13.37;11.97;;;;;;;20.13;81.26;100406.34;5015377;28;20192;-68
2021/06/20 02:24:52;;;;;;;15.40;11.30;;;;;;;20.07;81.40;100415.94;5000548;28;20241;-69
2021/06/20 02:27:17;;;;;;;13.23;11.53;;;;;;;20.06;81.68;100425.03;5002441;28;20286;-69
2021/06/20 02:29:44;;;;;;;13.17;11.80;;;;;;;20.09;81.46;100432.03;4981368;28;20176;-68
2021/06/20 02:32:10;;;;;;;13.87;11.77;;;;;;;20.08;81.33;100442.03;4981386;28;20177;-68
2021/06/20 02:34:36;;;;;;;13.37;11.27;;;;;;;20.07;81.73;100434.91;5015020;28;20184;-68
2021/06/20 02:37:03;;;;;;;13.47;10.90;;;;;;;20.09;81.33;100449.16;5015447;28;20275;-68
2021/06/20 02:39:28;;;;;;;11.57;10.30;;;;;;;20.23;80.17;100450.47;4997665;28;20231;-69
2021/06/20 02:41:54;;;;;;;11.77;10.13;;;;;;;20.41;78.68;100464.06;5014955;28;20550;-69
2021/06/20 02:44:20;;;;;;;11.10;9.87;;;;;;;20.50;77.97;100463.16;4981039;28;20280;-69
2021/06/20 02:46:46;;;;;;;10.50;8.43;;;;;;;20.50;77.85;100457.75;5014962;28;20206;-69
2021/06/20 02:49:11;;;;;;;11.97;10.10;;;;;;;20.42;78.52;100461.19;5014871;28;20188;-69
2021/06/20 02:51:37;;;;;;;10.43;9.40;;;;;;;20.35;79.02;100442.97;4997188;28;20660;-69
2021/06/20 02:54:02;;;;;;;10.40;9.30;;;;;;;20.28;79.34;100440.03;4997306;28;20168;-68
2021/06/20 02:56:27;;;;;;;12.13;9.23;;;;;;;20.38;78.15;100442.66;5014759;28;20180;-69
2021/06/20 02:58:53;;;;;;;12.03;9.03;;;;;;;20.35;78.00;100434.84;5014854;28;20177;-69
2021/06/20 03:01:18;;;;;;;11.30;8.53;;;;;;;20.28;78.24;100440.88;4997048;28;20612;-69
2021/06/20 03:03:44;;;;;;;11.77;7.73;;;;;;;20.27;77.87;100432.91;5015054;28;20176;-68
2021/06/20 03:06:10;;;;;;;10.20;7.90;;;;;;;20.25;78.03;100432.22;4997361;28;20177;-68
2021/06/20 03:08:35;;;;;;;9.13;8.13;;;;;;;20.20;78.33;100432.66;4996742;28;20231;-68
2021/06/20 03:11:01;;;;;;;10.93;7.73;;;;;;;20.22;78.37;100427.09;4996854;28;20177;-68
2021/06/20 03:13:26;;;;;;;8.70;7.90;;;;;;;20.14;78.95;100422.44;5014337;28;20200;-68
2021/06/20 03:15:51;;;;;;;9.67;8.50;;;;;;;20.18;78.72;100418.41;5013567;28;20200;-68
2021/06/20 03:18:17;;;;;;;11.30;8.47;;;;;;;20.13;79.34;100414.47;5014653;28;20247;-68
2021/06/20 03:20:42;;;;;;;13.67;8.40;;;;;;;20.03;79.79;100410.94;5014507;28;20478;-68
2021/06/20 03:23:10;;;;;;;10.20;9.20;;;;;;;19.91;80.26;100410.31;4996373;28;20268;-68
2021/06/20 03:25:37;;;;;;;12.50;9.63;;;;;;;19.90;80.25;100405.91;5014032;28;20208;-68
2021/06/20 03:28:02;;;;;;;14.83;9.10;;;;;;;19.92;80.08;100391.19;4996639;28;20291;-68
2021/06/20 03:30:28;;;;;;;10.30;8.43;;;;;;;19.95;80.06;100390.03;5014080;28;20184;-68
2021/06/20 03:32:53;;;;;;;10.97;9.47;;;;;;;19.87;80.24;100385.41;4996830;28;20208;-69
2021/06/20 03:35:18;;;;;;;11.53;9.50;;;;;;;19.92;80.08;100382.22;5014187;28;20199;-69
2021/06/20 03:37:44;;;;;;;10.43;9.33;;;;;;;19.95;79.96;100382.78;5013913;28;20189;-69
2021/06/20 03:40:09;;;;;;;12.80;9.20;;;;;;;19.98;79.95;100374.34;5013957;28;20541;-69
2021/06/20 03:42:34;;;;;;;11.23;9.13;;;;;;;20.26;78.54;100368.88;4996358;28;20189;-69
2021/06/20 03:45:00;;;;;;;16.90;8.97;;;;;;;20.23;78.81;100361.06;4996281;28;20169;-69
2021/06/20 03:47:25;;;;;;;11.97;8.60;;;;;;;20.17;79.18;100365.25;4996197;28;20197;-69
2021/06/20 03:49:50;;;;;;;10.30;8.83;;;;;;;20.14;79.36;100368.25;4980014;28;20184;-69
2021/06/20 03:52:16;;;;;;;10.20;8.47;;;;;;;20.21;79.06;100382.88;4996674;28;20188;-69
2021/06/20 03:54:41;;;;;;;11.30;8.40;;;;;;;20.39;78.50;100384.75;5013744;28;20519;-69
2021/06/20 03:57:06;;;;;;;11.30;8.63;;;;;;;20.36;78.40;100375.06;5013784;28;20227;-69
2021/06/20 03:59:31;;;;;;;14.93;7.90;;;;;;;20.43;78.59;100380.75;4995782;28;20177;-68
2021/06/20 04:01:57;;;;;;;12.40;8.63;;;;;;;20.51;78.15;100380.84;5013539;28;20173;-69
2021/06/20 04:04:22;;;;;;;10.80;8.17;;;;;;;20.51;78.04;100370.84;5013716;28;20173;-69
2021/06/20 04:06:48;;;;;;;13.13;7.57;;;;;;;20.63;77.54;100365.16;5013174;28;20219;-68
2021/06/20 04:09:13;;;;;;;11.77;8.43;;;;;;;20.50;78.23;100357.44;5013782;28;20169;-69
2021/06/20 04:11:39;;;;;;;13.50;8.03;;;;;;;20.60;77.85;100350.06;4996266;28;20259;-69
2021/06/20 04:14:04;;;;;;;10.00;8.03;;;;;;;20.49;78.33;100339.47;5013499;28;20176;-70
2021/06/20 04:16:29;;;;;;;10.90;8.20;;;;;;;20.49;78.66;100334.06;5013444;28;20177;-69
2021/06/20 04:18:55;;;;;;;9.20;7.67;;;;;;;20.70;77.64;100323.69;4997737;28;20214;-68
2021/06/20 04:21:20;;;;;;;12.83;8.03;;;;;;;20.65;78.20;100319.78;4996421;28;20207;-68
2021/06/20 04:23:48;;;;;;;12.83;7.97;;;;;;;20.73;77.78;100317.13;5013255;28;20176;-68
2021/06/20 04:26:13;;;;;;;9.33;8.10;;;;;;;20.79;77.77;100311.91;5013239;28;20169;-68
2021/06/20 04:28:40;;;;;;;10.77;7.53;;;;;;;21.09;76.48;100307.84;4995398;28;20205;-69
2021/06/20 04:31:05;;;;;;;11.97;7.83;;;;;;;21.07;76.63;100301.72;5013239;28;20259;-69
2021/06/20 04:33:30;;;;;;;9.13;6.67;;;;;;;21.37;75.35;100300.38;4995496;28;20242;-69
2021/06/20 04:35:57;;;;;;;9.97;6.67;;;;;;;21.48;75.17;100294.66;4996275;28;20177;-68
2021/06/20 04:38:23;;;;;;;9.30;6.23;;;;;;;21.65;74.21;100303.72;5013340;28;20279;-68
2021/06/20 04:40:48;;;;;;;7.37;6.13;;;;;;;22.00;72.90;100289.03;4995484;28;20177;-69
2021/06/20 04:46:28;;;;;;;7.43;6.70;;;;;;;21.63;74.05;100292.19;4989289;28;20189;-69
2021/06/20 04:48:56;;;;;;;7.10;6.40;;;;;;;21.98;73.14;100282.91;5013119;28;20166;-69
2021/06/20 04:51:21;;;;;;;11.17;6.90;;;;;;;22.08;72.62;100280.91;4995549;28;20208;-69
2021/06/20 04:53:48;;;;;;;9.57;6.33;;;;;;;22.27;71.85;100281.59;5013347;28;20177;-70
2021/06/20 04:56:13;;;;;;;9.83;6.90;;;;;;;22.05;72.60;100283.97;4995897;28;20173;-69
2021/06/20 04:58:39;;;;;;;9.57;6.90;;;;;;;21.65;74.19;100287.44;5013235;28;20189;-69
2021/06/20 05:01:05;;;;;;;7.73;6.37;;;;;;;22.17;72.83;100287.19;5013182;28;20180;-69
2021/06/20 05:03:30;;;;;;;10.50;6.80;;;;;;;21.88;74.04;100294.94;5013083;28;20637;-69
2021/06/20 05:05:55;;;;;;;10.13;6.77;;;;;;;22.29;71.76;100288.56;4995328;28;20173;-69
2021/06/20 05:08:21;;;;;;;8.13;7.33;;;;;;;22.44;71.16;100288.72;5012811;28;20204;-70
2021/06/20 05:10:46;;;;;;;7.50;6.70;;;;;;;22.44;71.58;100277.84;4995355;28;20232;-69
2021/06/20 05:13:11;;;;;;;6.60;5.87;;;;;;;22.76;70.44;100269.66;4995451;28;20208;-69
2021/06/20 05:15:36;;;;;;;8.17;6.30;;;;;;;22.91;70.12;100261.66;5012924;28;20254;-69
2021/06/20 05:18:02;;;;;;;8.27;6.20;;;;;;;22.99;69.99;100258.91;5012871;28;20557;-69
2021/06/20 05:20:27;;;;;;;6.40;5.63;;;;;;;23.15;70.17;100249.00;5012818;28;20196;-69
2021/06/20 05:22:52;;;;;;;7.53;5.43;;;;;;;23.51;68.45;100243.88;5012657;28;20660;-69
2021/06/20 05:25:18;;;;;;;8.17;6.50;;;;;;;23.16;69.57;100234.38;5012778;28;20173;-69
2021/06/20 05:27:43;;;;;;;9.17;7.10;;;;;;;22.94;70.41;100235.97;4995033;28;20264;-68
2021/06/20 05:30:09;;;;;;;7.27;6.27;;;;;;;23.68;68.34;100227.28;5012767;28;20173;-68
2021/06/20 05:32:35;;;;;;;10.57;7.20;;;;;;;23.95;66.52;100233.25;4995098;28;20184;-69
2021/06/20 05:35:00;;;;;;;13.20;7.37;;;;;;;24.11;65.92;100234.97;5012641;28;20215;-68
2021/06/20 05:37:25;;;;;;;9.33;6.93;;;;;;;24.14;65.87;100229.16;5012651;28;20193;-69
2021/06/20 05:39:51;;;;;;;13.90;7.03;;;;;;;24.40;64.99;100226.06;4980542;28;20259;-69
2021/06/20 05:42:16;;;;;;;7.83;7.00;;;;;;;24.41;64.84;100233.22;5016635;28;20181;-70
2021/06/20 05:44:41;;;;;;;7.77;6.97;;;;;;;24.55;64.11;100243.31;5016162;28;20526;-68
2021/06/20 05:47:06;;;;;;;10.03;7.67;;;;;;;24.59;63.60;100247.38;5016248;28;20211;-71
2021/06/20 05:49:33;;;;;;;9.97;7.83;;;;;;;24.82;62.67;100250.00;5016565;28;20180;-70
2021/06/20 05:51:58;;;;;;;9.37;7.57;;;;;;;24.89;62.57;100250.94;5016771;28;20268;-70
2021/06/20 05:54:23;;;;;;;11.80;8.20;;;;;;;25.06;62.01;100247.03;4998940;28;20260;-70
2021/06/20 05:56:49;;;;;;;10.33;7.27;;;;;;;25.25;61.23;100251.91;5016966;28;20185;-70
2021/06/20 05:59:14;;;;;;;12.33;7.13;;;;;;;25.27;61.18;100253.59;4999191;28;20181;-69
2021/06/20 06:01:39;;;;;;;10.50;7.83;;;;;;;25.51;59.84;100247.81;5016514;28;20712;-70
2021/06/20 06:04:04;;;;;;;8.77;7.07;;;;;;;25.69;58.41;100240.09;5016140;28;20227;-70
2021/06/20 06:06:30;;;;;;;8.10;7.27;;;;;;;25.77;57.24;100239.97;4997992;28;20180;-70
2021/06/20 06:08:56;;;;;;;10.20;7.80;;;;;;;25.93;57.18;100238.03;4998652;28;20250;-70
2021/06/20 06:11:21;;;;;;;12.00;8.10;;;;;;;26.27;56.57;100243.59;5015997;28;20629;-69
2021/06/20 06:13:46;;;;;;;9.10;6.80;;;;;;;26.56;55.78;100249.97;5015934;28;20177;-70
2021/06/20 06:16:12;;;;;;;10.23;7.77;;;;;;;26.33;55.46;100248.31;5015667;28;20180;-70
2021/06/20 06:18:37;;;;;;;8.80;7.37;;;;;;;26.19;55.71;100243.75;5015411;28;20258;-70
2021/06/20 06:21:02;;;;;;;9.90;8.17;;;;;;;25.49;57.00;100252.63;5015505;28;20173;-70
2021/06/20 06:23:28;;;;;;;11.63;8.53;;;;;;;25.27;57.00;100261.78;5015821;28;20189;-69
2021/06/20 06:25:53;;;;;;;11.03;8.53;;;;;;;25.22;57.25;100268.69;5015376;28;20181;-70
2021/06/20 06:28:18;;;;;;;10.63;8.40;;;;;;;25.60;56.62;100256.75;4998185;28;20266;-69
2021/06/20 06:30:43;;;;;;;10.97;8.00;;;;;;;25.38;57.12;100277.72;5015490;28;20177;-70
2021/06/20 06:33:09;;;;;;;11.83;9.10;;;;;;;25.31;58.07;100276.78;5015599;28;20181;-70
2021/06/20 06:35:34;;;;;;;11.17;8.93;;;;;;;25.29;57.89;100281.59;5015598;28;20223;-70
2021/06/20 06:37:59;;;;;;;10.97;8.93;;;;;;;25.18;58.62;100283.75;5007830;28;20203;-70
2021/06/20 06:40:25;;;;;;;10.00;7.73;;;;;;;25.84;56.61;100275.56;5027656;28;20208;-70
2021/06/20 06:42:50;;;;;;;10.97;8.43;;;;;;;26.10;55.82;100275.00;4992649;28;20172;-70
2021/06/20 06:45:16;;;;;;;12.20;7.77;;;;;;;26.27;55.47;100267.38;5000381;28;20630;-70
2021/06/20 06:47:42;;;;;;;10.47;8.83;;;;;;;25.48;57.33;100276.38;5015736;28;20247;-69
2021/06/20 06:50:08;;;;;;;10.77;8.87;;;;;;;25.41;57.96;100270.00;5014936;28;20188;-70
2021/06/20 06:52:33;;;;;;;12.53;8.23;;;;;;;26.06;56.46;100257.31;5017010;28;20184;-71
2021/06/20 06:54:59;;;;;;;15.97;8.83;;;;;;;26.27;55.49;100249.06;4997557;28;20173;-69
2021/06/20 06:57:24;;;;;;;10.87;9.00;;;;;;;26.03;56.92;100250.34;5015028;28;20203;-70
2021/06/20 06:59:51;;;;;;;11.20;8.03;;;;;;;26.21;55.45;100249.88;5014740;28;20573;-70
2021/06/20 07:02:16;;;;;;;14.03;8.77;;;;;;;25.96;56.54;100243.09;5014687;28;20177;-70
2021/06/20 07:04:42;;;;;;;9.27;8.33;;;;;;;25.95;56.00;100238.66;5014833;28;20177;-70
2021/06/20 07:07:07;;;;;;;11.43;8.53;;;;;;;25.83;56.57;100249.28;4980743;28;20558;-70
2021/06/20 07:09:32;;;;;;;12.87;9.23;;;;;;;25.77;57.04;100248.16;5014566;28;20250;-70
2021/06/20 07:11:58;;;;;;;10.17;8.80;;;;;;;25.89;57.09;100236.72;4997511;28;20238;-69
2021/06/20 07:14:24;;;;;;;10.10;8.63;;;;;;;26.15;56.35;100236.97;4997180;28;20172;-70
2021/06/20 07:16:49;;;;;;;10.07;9.07;;;;;;;25.94;56.21;100234.25;4996906;28;20223;-70
2021/06/20 07:19:14;;;;;;;11.33;9.70;;;;;;;25.76;56.85;100231.97;5014576;28;20196;-70
2021/06/20 07:21:40;;;;;;;13.13;9.50;;;;;;;25.66;57.47;100234.16;5014474;28;20181;-70
2021/06/20 07:24:05;;;;;;;11.93;9.60;;;;;;;25.62;57.67;100241.00;5014671;28;20243;-70
2021/06/20 07:26:31;;;;;;;11.57;9.73;;;;;;;25.98;56.31;100235.53;5014778;28;20173;-70
2021/06/20 07:28:56;;;;;;;10.03;9.03;;;;;;;25.73;57.67;100235.94;4996424;28;20201;-69
2021/06/20 07:31:22;;;;;;;11.27;10.10;;;;;;;25.95;57.39;100235.94;5014075;28;20192;-69
2021/06/20 07:33:48;;;;;;;13.90;9.50;;;;;;;26.12;56.31;100240.13;4996427;28;20537;-70
2021/06/20 07:36:15;;;;;;;12.17;9.43;;;;;;;26.24;56.40;100237.69;5014251;28;20184;-70
2021/06/20 07:38:41;;;;;;;13.13;10.30;;;;;;;26.26;56.25;100236.44;4996587;28;20696;-70
2021/06/20 07:41:06;;;;;;;11.07;9.87;;;;;;;26.56;55.73;100225.34;5014253;28;20180;-70
2021/06/20 07:43:31;;;;;;;12.47;9.87;;;;;;;26.50;56.04;100223.41;5013888;28;20634;-70
2021/06/20 07:45:56;;;;;;;11.90;10.17;;;;;;;26.61;55.70;100206.44;4996228;28;20181;-70
2021/06/20 07:48:25;;;;;;;13.47;9.67;;;;;;;26.55;56.06;100207.25;5013981;28;20212;-69
2021/06/20 07:50:51;;;;;;;19.27;9.40;;;;;;;26.92;55.68;100206.00;5013672;28;20546;-70
2021/06/20 07:53:16;;;;;;;14.47;9.77;;;;;;;27.75;53.24;100206.78;5013655;28;20645;-69
2021/06/20 07:55:42;;;;;;;13.00;8.80;;;;;;;28.19;52.58;100200.72;5013694;28;20173;-69
2021/06/20 07:58:08;;;;;;;12.57;9.23;;;;;;;28.43;51.41;100200.13;5013649;28;20204;-69
2021/06/20 08:00:33;;;;;;;17.20;9.07;;;;;;;28.98;50.24;100194.31;5013600;28;20534;-69
2021/06/20 08:02:58;;;;;;;13.67;9.50;;;;;;;28.62;50.78;100188.28;5013128;28;20191;-69
2021/06/20 08:05:23;;;;;;;12.23;9.87;;;;;;;27.94;51.65;100190.41;4979794;28;20177;-69
2021/06/20 08:07:50;;;;;;;13.10;9.27;;;;;;;27.76;52.58;100186.56;5036483;22;20251;-72
2021/06/20 08:10:15;;;;;;;11.17;8.93;;;;;;;28.24;51.78;100179.00;5013680;28;20181;-74
2021/06/20 08:12:41;;;;;;;11.37;9.37;;;;;;;28.63;49.66;100186.38;5014285;28;20202;-72
2021/06/20 08:15:07;;;;;;;14.03;9.17;;;;;;;27.91;52.20;100187.22;5013719;28;20180;-72
2021/06/20 08:17:32;;;;;;;11.27;8.80;;;;;;;28.38;50.47;100188.09;5013687;28;20212;-72
2021/06/20 08:19:59;;;;;;;11.07;9.60;;;;;;;28.11;51.31;100192.72;4996148;28;20694;-72
2021/06/20 08:22:24;;;;;;;26.50;9.50;;;;;;;27.74;52.97;100194.16;5013730;28;20215;-71
2021/06/20 08:24:50;;;;;;;12.00;9.90;;;;;;;27.59;53.09;100184.19;5013798;28;20181;-72
2021/06/20 08:27:15;;;;;;;12.63;10.00;;;;;;;27.12;54.36;100186.94;5013359;28;20201;-72
2021/06/20 08:29:40;;;;;;;11.97;9.07;;;;;;;28.00;52.53;100202.41;4996019;28;20211;-73
2021/06/20 08:32:06;;;;;;;13.23;10.87;;;;;;;28.60;50.94;100211.50;5013616;28;20181;-72
2021/06/20 08:34:32;;;;;;;12.93;10.63;;;;;;;28.89;50.67;100204.72;5013621;28;20251;-73
2021/06/20 08:36:59;;;;;;;13.17;10.00;;;;;;;29.08;50.24;100186.50;4996095;28;20264;-73
2021/06/20 08:39:25;;;;;;;13.30;9.27;;;;;;;28.23;53.06;100169.06;5013515;28;20180;-73
2021/06/20 08:41:50;;;;;;;12.47;10.20;;;;;;;28.67;52.16;100171.16;4995986;28;20188;-73
2021/06/20 08:44:26;;;;;;;11.60;8.73;;;;;;;28.80;51.93;100179.38;4995926;28;20177;-73
2021/06/20 08:46:52;;;;;;;11.32;10.02;;;;;;;28.46;52.66;100176.91;4995881;28;20165;-73
2021/06/20 08:49:18;;;;;;;14.77;10.63;;;;;;;29.36;50.50;100158.66;4995758;28;20519;-73
2021/06/20 08:51:48;;;;;;;14.18;10.20;;;;;;;28.47;52.60;100151.13;5013489;28;20179;-73
2021/06/20 08:54:14;;;;;;;11.27;8.98;;;;;;;29.02;51.98;100141.50;4995881;28;20181;-73
2021/06/20 08:56:39;;;;;;;12.50;8.95;;;;;;;29.29;50.65;100128.47;4995780;28;20177;-73
2021/06/20 08:59:05;;;;;;;12.53;9.50;;;;;;;29.48;50.26;100127.56;4980540;28;20208;-73
2021/06/20 09:01:34;;;;;;;12.48;10.27;;;;;;;29.23;50.56;100129.34;5014047;28;20197;-73
2021/06/20 09:04:00;;;;;;;14.98;10.07;;;;;;;29.33;50.07;100126.97;4995563;28;20177;-73
2021/06/20 09:06:26;;;;;;;12.43;10.07;;;;;;;29.43;49.97;100141.09;5013044;28;20175;-73
2021/06/20 09:08:53;;;;;;;11.65;9.63;;;;;;;29.19;50.44;100161.09;5012812;28;20693;-73
2021/06/20 09:11:31;;;;;;;11.05;9.73;;;;;;;29.29;51.15;100163.34;4995764;28;20173;-72
2021/06/20 09:14:15;;;;;;;12.52;9.63;;;;;;;29.77;49.57;100158.25;5013103;28;20231;-73
2021/06/20 09:16:49;;;;;;;12.23;11.05;;;;;;;28.49;52.52;100165.50;4999365;28;20169;-73
2021/06/20 09:19:15;;;;;;;10.90;9.75;;;;;;;29.40;51.26;100135.19;4999025;28;20216;-73
2021/06/20 09:21:54;;;;;;;11.68;10.05;;;;;;;29.66;50.52;100114.94;4999279;28;20267;-72
2021/06/20 09:24:19;;;;;;;11.98;10.23;;;;;;;30.01;49.22;100107.88;4999259;28;20176;-72
2021/06/20 09:26:45;;;;;;;14.25;10.48;;;;;;;30.11;48.45;100099.19;5016589;28;20186;-73
2021/06/20 09:29:10;;;;;;;12.10;10.38;;;;;;;29.67;49.58;100106.47;5016652;28;20208;-73
2021/06/20 09:31:46;;;;;;;12.63;10.83;;;;;;;29.09;51.69;100105.75;4999079;28;20185;-73
2021/06/20 09:34:12;;;;;;;13.60;11.30;;;;;;;29.99;49.27;100109.19;4999121;28;20253;-74
2021/06/20 09:36:37;;;;;;;17.52;10.95;;;;;;;29.04;51.68;100117.41;4998841;28;20182;-73
2021/06/20 09:39:24;;;;;;;16.77;11.37;;;;;;;29.27;50.97;100112.19;4998992;28;20225;-75
2021/06/20 09:42:04;;;;;;;12.67;10.53;;;;;;;29.29;51.46;100116.63;4998914;28;20633;-74
2021/06/20 09:44:39;;;;;;;15.30;10.67;;;;;;;29.92;50.57;100111.16;4982813;28;20173;-74
2021/06/20 09:47:09;;;;;;;12.88;11.00;;;;;;;30.37;49.66;100109.06;5017357;28;20576;-73
2021/06/20 09:49:35;;;;;;;18.15;11.07;;;;;;;30.06;49.50;100112.75;4998834;28;20546;-74
2021/06/20 09:52:01;;;;;;;12.32;11.13;;;;;;;29.96;50.29;100113.22;4999169;28;20176;-74
2021/06/20 09:54:30;;;;;;;13.27;11.88;;;;;;;29.43;50.41;100119.09;5016424;28;20185;-74
2021/06/20 09:56:56;;;;;;;13.63;11.18;;;;;;;29.92;49.93;100120.25;5016502;28;20181;-75
2021/06/20 09:59:32;;;;;;;11.63;10.52;;;;;;;30.32;48.80;100122.66;4998909;28;20180;-74
2021/06/20 10:02:09;;;;;;;18.20;10.63;;;;;;;30.34;48.62;100115.03;4999100;28;20172;-73
2021/06/20 10:04:35;;;;;;;12.27;10.73;;;;;;;31.00;47.51;100098.59;5019366;28;20599;-73
2021/06/20 10:07:01;;;;;;;14.88;10.23;;;;;;;30.53;48.07;100097.47;5017176;28;20244;-73
2021/06/20 10:09:26;;;;;;;15.07;11.63;;;;;;;30.21;48.59;100087.66;5000569;28;20173;-73
2021/06/20 10:11:52;;;;;;;11.52;10.52;;;;;;;29.69;48.90;100098.84;4998941;28;20184;-73
2021/06/20 10:14:17;;;;;;;13.52;10.18;;;;;;;30.39;49.25;100098.66;5020408;28;20216;-73
2021/06/20 10:16:48;;;;;;;14.82;11.13;;;;;;;30.49;47.96;100107.25;4999518;28;20174;-73
2021/06/20 10:19:18;;;;;;;12.90;10.85;;;;;;;29.82;50.42;100089.66;4999047;28;20246;-74
2021/06/20 10:21:46;;;;;;;11.27;10.07;;;;;;;30.57;48.00;100082.16;5000171;28;20213;-74
2021/06/20 10:24:14;;;;;;;11.23;10.15;;;;;;;30.65;47.08;100090.16;5000220;28;20181;-74
2021/06/20 10:26:54;;;;;;;16.38;10.13;;;;;;;30.64;46.87;100093.97;5016789;28;20204;-74
2021/06/20 10:29:24;;;;;;;12.10;9.90;;;;;;;30.65;47.04;100103.06;4999572;28;20200;-73
2021/06/20 10:31:51;;;;;;;12.77;9.82;;;;;;;30.85;46.58;100108.31;5017024;28;20176;-73
2021/06/20 10:34:23;;;;;;;10.48;9.13;;;;;;;31.63;45.50;100108.34;4998806;28;20181;-73
2021/06/20 10:36:58;;;;;;;15.00;10.82;;;;;;;32.40;43.82;100113.88;5016794;28;20173;-74
2021/06/20 10:39:24;;;;;;;12.55;9.80;;;;;;;32.29;42.33;100123.81;4998717;28;20648;-73
2021/06/20 10:42:04;;;;;;;9.38;8.30;;;;;;;32.73;39.97;100124.28;4982837;28;20180;-74
2021/06/20 10:44:40;;;;;;;13.00;8.35;;;;;;;33.72;38.40;100122.97;5015994;28;20168;-75
2021/06/20 10:47:06;;;;;;;9.45;8.30;;;;;;;33.13;38.69;100130.69;5016024;28;20189;-73
2021/06/20 10:49:31;;;;;;;9.30;8.40;;;;;;;33.35;37.66;100122.56;5015452;28;20229;-74
2021/06/20 10:51:56;;;;;;;9.68;8.70;;;;;;;33.21;37.90;100130.31;5015364;28;20177;-74
2021/06/20 10:54:24;;;;;;;9.60;8.60;;;;;;;32.33;40.54;100147.09;4998321;28;20223;-74
2021/06/20 10:56:57;;;;;;;14.32;9.38;;;;;;;32.30;41.03;100155.88;5015813;28;20557;-74
2021/06/20 10:59:23;;;;;;;15.43;10.45;;;;;;;32.23;41.34;100146.84;5015893;28;20243;-74
2021/06/20 11:01:49;;;;;;;13.48;10.60;;;;;;;32.42;40.84;100142.94;4998255;28;20200;-74
2021/06/20 11:04:14;;;;;;;12.80;11.05;;;;;;;32.55;40.60;100131.63;5015742;28;20185;-74
2021/06/20 11:06:51;;;;;;;12.43;11.23;;;;;;;32.59;40.16;100126.44;5016309;28;20197;-74
2021/06/20 11:09:17;;;;;;;10.57;9.30;;;;;;;32.83;40.55;100136.41;5017648;28;20216;-76
2021/06/20 11:11:51;;;;;;;15.50;10.60;;;;;;;33.05;39.90;100139.34;5037245;28;20169;-73
2021/06/20 11:14:18;;;;;;;13.23;9.70;;;;;;;33.16;40.00;100129.38;5037243;28;20176;-74